createdAt,value
2023-07-25T00:01:16.571Z,13.38
2023-07-25T00:03:44.417Z,13.40
2023-07-25T00:06:12.147Z,13.39
2023-07-25T00:08:40.046Z,13.43
2023-07-25T00:11:14.772Z,13.44
2023-07-25T00:13:42.585Z,13.42
2023-07-25T00:16:10.362Z,13.42
2023-07-25T00:18:38.184Z,13.42
2023-07-25T00:21:05.864Z,13.41
2023-07-25T00:23:33.617Z,13.49
2023-07-25T00:26:01.377Z,13.49
2023-07-25T00:28:29.132Z,13.51
2023-07-25T00:30:56.852Z,13.52
2023-07-25T00:33:24.646Z,13.54
2023-07-25T00:35:53.786Z,13.53
2023-07-25T00:38:21.536Z,13.55
2023-07-25T00:40:49.256Z,13.58
2023-07-25T00:43:17.369Z,13.60
2023-07-25T00:45:45.248Z,13.52
2023-07-25T00:48:14.111Z,13.48
2023-07-25T00:50:41.913Z,13.49
2023-07-25T00:53:10.902Z,13.49
2023-07-25T00:55:39.585Z,13.49
2023-07-25T00:58:07.413Z,13.49
2023-07-25T01:00:39.410Z,13.52
2023-07-25T01:03:07.958Z,13.52
2023-07-25T01:05:46.351Z,13.57
2023-07-25T01:08:14.142Z,13.61
2023-07-25T01:10:41.883Z,13.61
2023-07-25T01:13:09.613Z,13.61
2023-07-25T01:15:37.517Z,13.64
2023-07-25T01:18:07.417Z,13.60
2023-07-25T01:20:36.886Z,13.65
2023-07-25T01:23:07.277Z,13.70
2023-07-25T01:25:36.521Z,13.67
2023-07-25T01:28:04.545Z,13.62
2023-07-25T01:30:32.510Z,13.60
2023-07-25T01:33:00.467Z,13.60
2023-07-25T01:35:28.522Z,13.63
2023-07-25T01:37:56.308Z,13.64
2023-07-25T01:40:24.158Z,13.64
2023-07-25T01:42:52.219Z,13.63
2023-07-25T01:45:20.134Z,13.62
2023-07-25T01:47:47.940Z,13.64
2023-07-25T01:50:16.722Z,13.66
2023-07-25T01:52:44.677Z,13.69
2023-07-25T01:55:12.557Z,13.72
2023-07-25T01:57:40.256Z,13.70
2023-07-25T02:00:08.861Z,13.65
2023-07-25T02:02:40.903Z,13.63
2023-07-25T02:05:08.994Z,13.61
2023-07-25T02:07:38.424Z,13.59
2023-07-25T02:10:06.879Z,13.53
2023-07-25T02:12:34.636Z,13.47
2023-07-25T02:15:02.462Z,13.42
2023-07-25T02:17:30.205Z,13.39
2023-07-25T02:19:57.920Z,13.42
2023-07-25T02:22:25.608Z,13.41
2023-07-25T02:24:53.611Z,13.39
2023-07-25T02:27:21.394Z,13.31
2023-07-25T02:29:49.314Z,13.23
2023-07-25T02:32:17.009Z,13.20
2023-07-25T02:34:44.691Z,13.21
2023-07-25T02:37:12.456Z,13.19
2023-07-25T02:39:44.030Z,13.19
2023-07-25T02:42:11.791Z,13.17
2023-07-25T02:44:39.569Z,13.15
2023-07-25T02:47:07.945Z,13.13
2023-07-25T02:49:36.976Z,13.12
2023-07-25T02:52:05.341Z,13.13
2023-07-25T02:54:33.055Z,13.13
2023-07-25T02:57:00.781Z,13.14
2023-07-25T02:59:30.820Z,13.16
2023-07-25T03:01:58.883Z,13.14
2023-07-25T03:04:26.720Z,13.14
2023-07-25T03:06:54.483Z,13.15
2023-07-25T03:09:22.264Z,13.18
2023-07-25T03:11:50.122Z,13.25
2023-07-25T03:14:18.102Z,13.28
2023-07-25T03:16:45.894Z,13.30
2023-07-25T03:19:13.726Z,13.31
2023-07-25T03:21:41.522Z,13.26
2023-07-25T03:24:09.211Z,13.25
2023-07-25T03:26:37.561Z,13.23
2023-07-25T03:29:05.598Z,13.19
2023-07-25T03:31:34.038Z,13.16
2023-07-25T03:34:02.233Z,13.13
2023-07-25T03:36:30.253Z,13.10
2023-07-25T03:38:58.036Z,13.11
2023-07-25T03:41:25.993Z,13.22
2023-07-25T03:43:53.720Z,13.22
2023-07-25T03:46:21.488Z,13.18
2023-07-25T03:48:49.320Z,13.22
2023-07-25T03:51:17.111Z,13.24
2023-07-25T03:53:44.834Z,13.29
2023-07-25T03:56:12.586Z,13.31
2023-07-25T03:58:40.336Z,13.27
2023-07-25T04:01:08.073Z,13.23
2023-07-25T04:03:35.900Z,13.25
2023-07-25T04:06:03.936Z,13.24
2023-07-25T04:08:31.856Z,13.17
2023-07-25T04:10:59.560Z,13.09
2023-07-25T04:13:27.337Z,13.03
2023-07-25T04:15:55.133Z,12.97
2023-07-25T04:18:23.141Z,12.91
2023-07-25T04:20:50.903Z,12.90
2023-07-25T04:23:23.009Z,12.90
2023-07-25T04:25:50.806Z,12.89
2023-07-25T04:28:19.219Z,12.88
2023-07-25T04:30:46.952Z,12.87
2023-07-25T04:33:14.675Z,12.88
2023-07-25T04:35:46.261Z,12.88
2023-07-25T04:38:15.564Z,12.87
2023-07-25T04:40:44.978Z,12.87
2023-07-25T04:43:12.927Z,12.81
2023-07-25T04:45:40.935Z,12.81
2023-07-25T04:48:08.893Z,12.83
2023-07-25T04:50:36.887Z,12.83
2023-07-25T04:53:05.881Z,12.83
2023-07-25T04:55:33.592Z,12.86
2023-07-25T04:58:01.314Z,12.85
2023-07-25T05:00:30.824Z,12.82
2023-07-25T05:02:58.898Z,12.81
2023-07-25T05:05:26.881Z,12.81
2023-07-25T05:07:54.591Z,12.79
2023-07-25T05:10:22.423Z,12.80
2023-07-25T05:12:50.214Z,12.80
2023-07-25T05:15:18.165Z,12.82
2023-07-25T05:17:45.910Z,12.84
2023-07-25T05:20:14.370Z,12.86
2023-07-25T05:22:42.084Z,12.90
2023-07-25T05:25:10.126Z,12.95
2023-07-25T05:27:37.877Z,12.99
2023-07-25T05:30:07.107Z,13.03
2023-07-25T05:32:38.017Z,13.04
2023-07-25T05:35:06.708Z,13.04
2023-07-25T05:37:37.378Z,13.05
2023-07-25T05:40:06.998Z,13.07
2023-07-25T05:42:34.996Z,13.11
2023-07-25T05:45:02.929Z,13.15
2023-07-25T05:47:30.927Z,13.16
2023-07-25T05:49:58.828Z,13.19
2023-07-25T05:52:26.675Z,13.24
2023-07-25T05:54:54.801Z,13.36
2023-07-25T05:57:22.646Z,13.42
2023-07-25T05:59:50.379Z,13.48
2023-07-25T06:02:18.142Z,13.53
2023-07-25T06:04:47.396Z,13.53
2023-07-25T06:07:16.707Z,13.53
2023-07-25T06:09:44.501Z,13.54
2023-07-25T06:12:12.475Z,13.60
2023-07-25T06:14:40.349Z,13.60
2023-07-25T06:17:08.201Z,13.62
2023-07-25T06:19:36.034Z,13.58
2023-07-25T06:22:03.876Z,13.56
2023-07-25T06:24:41.488Z,13.52
2023-07-25T06:27:11.499Z,13.51
2023-07-25T06:29:39.303Z,13.52
2023-07-25T06:32:07.701Z,13.57
2023-07-25T06:34:35.833Z,13.61
2023-07-25T06:37:03.778Z,13.62
2023-07-25T06:39:31.634Z,13.62
2023-07-25T06:41:59.343Z,13.66
2023-07-25T06:44:29.045Z,13.69
2023-07-25T06:46:56.836Z,13.70
2023-07-25T06:49:24.599Z,13.73
2023-07-25T06:51:52.340Z,13.74
2023-07-25T06:54:20.072Z,13.76
2023-07-25T06:56:47.876Z,13.77
2023-07-25T06:59:15.666Z,13.81
2023-07-25T07:01:43.456Z,13.86
2023-07-25T07:04:11.417Z,13.87
2023-07-25T07:06:39.381Z,13.91
2023-07-25T07:09:07.089Z,13.96
2023-07-25T07:11:34.912Z,13.99
2023-07-25T07:14:02.706Z,14.05
2023-07-25T07:16:30.486Z,14.12
2023-07-25T07:18:58.303Z,14.23
2023-07-25T07:21:26.173Z,14.33
2023-07-25T07:23:54.153Z,14.40
2023-07-25T07:26:21.959Z,14.51
2023-07-25T07:28:50.727Z,14.56
2023-07-25T07:31:24.437Z,14.60
2023-07-25T07:33:53.429Z,14.61
2023-07-25T07:36:21.186Z,14.64
2023-07-25T07:38:48.916Z,14.70
2023-07-25T07:41:16.661Z,14.77
2023-07-25T07:43:44.392Z,14.83
2023-07-25T07:46:12.127Z,14.93
2023-07-25T07:48:42.024Z,15.02
2023-07-25T07:51:10.040Z,15.06
2023-07-25T07:53:39.622Z,15.12
2023-07-25T07:56:08.645Z,15.19
2023-07-25T07:58:36.483Z,15.30
2023-07-25T08:01:04.869Z,15.46
2023-07-25T08:03:32.818Z,15.66
2023-07-25T08:06:00.608Z,15.87
2023-07-25T08:08:28.444Z,16.07
2023-07-25T08:10:56.180Z,16.21
2023-07-25T08:13:24.033Z,16.26
2023-07-25T08:15:51.779Z,16.29
2023-07-25T08:18:19.984Z,16.34
2023-07-25T08:20:47.939Z,16.34
2023-07-25T08:23:15.707Z,16.24
2023-07-25T08:25:44.966Z,16.23
2023-07-25T08:28:12.796Z,16.30
2023-07-25T08:30:40.526Z,16.42
2023-07-25T08:33:08.456Z,16.49
2023-07-25T08:35:36.965Z,16.53
2023-07-25T08:38:04.741Z,16.50
2023-07-25T08:40:32.643Z,16.50
2023-07-25T08:43:10.202Z,16.49
2023-07-25T08:45:38.178Z,16.59
2023-07-25T08:48:13.528Z,16.66
2023-07-25T08:50:46.985Z,16.70
2023-07-25T08:53:16.566Z,16.74
2023-07-25T08:55:45.426Z,16.79
2023-07-25T08:58:15.584Z,16.92
2023-07-25T09:00:44.341Z,17.05
2023-07-25T09:03:12.884Z,17.17
2023-07-25T09:05:41.086Z,17.25
2023-07-25T09:08:08.823Z,17.30
2023-07-25T09:10:37.130Z,17.38
2023-07-25T09:13:04.836Z,17.53
2023-07-25T09:15:32.709Z,17.60
2023-07-25T09:18:00.470Z,17.68
2023-07-25T09:20:28.359Z,17.85
2023-07-25T09:22:58.759Z,17.95
2023-07-25T09:25:27.258Z,17.94
2023-07-25T09:27:55.839Z,17.89
2023-07-25T09:30:29.146Z,17.87
2023-07-25T09:32:57.067Z,17.91
2023-07-25T09:35:26.416Z,17.97
2023-07-25T09:37:56.174Z,17.99
2023-07-25T09:40:24.144Z,18.09
2023-07-25T09:42:52.626Z,18.25
2023-07-25T09:45:20.954Z,18.54
2023-07-25T09:47:52.978Z,18.80
2023-07-25T09:50:27.395Z,18.99
2023-07-25T09:52:55.210Z,19.06
2023-07-25T09:55:23.121Z,19.12
2023-07-25T09:57:52.867Z,18.98
2023-07-25T10:00:20.807Z,18.83
2023-07-25T10:02:50.038Z,18.76
2023-07-25T10:05:18.408Z,18.87
2023-07-25T10:07:48.807Z,19.05
2023-07-25T10:10:20.351Z,19.16
2023-07-25T10:12:48.162Z,19.20
2023-07-25T10:15:15.966Z,19.16
2023-07-25T10:17:45.483Z,19.19
2023-07-25T10:20:32.136Z,19.37
2023-07-25T10:23:12.505Z,19.48
2023-07-25T10:25:40.611Z,19.53
2023-07-25T10:28:09.084Z,19.57
2023-07-25T10:30:46.460Z,19.57
2023-07-25T10:33:15.938Z,19.44
2023-07-25T10:35:50.927Z,19.44
2023-07-25T10:38:34.263Z,19.61
2023-07-25T10:41:17.664Z,19.70
2023-07-25T10:43:56.371Z,19.80
2023-07-25T10:46:29.698Z,19.99
2023-07-25T10:49:01.234Z,19.96
2023-07-25T10:51:50.159Z,19.94
2023-07-25T10:54:20.920Z,19.97
2023-07-25T10:57:10.460Z,19.93
2023-07-25T10:59:59.643Z,19.83
2023-07-25T11:02:35.926Z,19.76
2023-07-25T11:05:13.316Z,19.81
2023-07-25T11:07:46.973Z,19.90
2023-07-25T11:10:27.542Z,19.92
2023-07-25T11:13:01.651Z,19.93
2023-07-25T11:15:40.726Z,19.97
2023-07-25T11:18:15.720Z,20.08
2023-07-25T11:20:44.318Z,20.11
2023-07-25T11:23:12.414Z,20.22
2023-07-25T11:25:40.190Z,20.38
2023-07-25T11:28:08.825Z,20.10
2023-07-25T11:30:45.100Z,19.57
2023-07-25T11:33:13.035Z,19.08
2023-07-25T11:35:40.926Z,18.97
2023-07-25T11:38:09.051Z,19.02
2023-07-25T11:40:41.400Z,19.00
2023-07-25T11:43:14.071Z,19.10
2023-07-25T11:45:45.175Z,19.20
2023-07-25T11:48:15.954Z,19.39
2023-07-25T11:50:44.854Z,19.47
2023-07-25T11:53:12.740Z,19.48
2023-07-25T11:55:40.567Z,19.46
2023-07-25T11:58:08.313Z,19.44
2023-07-25T12:00:41.034Z,19.32
2023-07-25T12:03:22.801Z,19.40
2023-07-25T12:05:59.651Z,19.66
2023-07-25T12:08:46.269Z,20.10
2023-07-25T12:11:16.617Z,20.60
2023-07-25T12:13:53.455Z,20.72
2023-07-25T12:16:38.206Z,20.76
2023-07-25T12:19:11.083Z,20.78
2023-07-25T12:21:42.482Z,20.86
2023-07-25T12:24:13.783Z,20.84
2023-07-25T12:26:48.233Z,20.86
2023-07-25T12:29:22.658Z,20.88
2023-07-25T12:31:50.467Z,20.94
2023-07-25T12:34:21.388Z,21.04
2023-07-25T12:36:50.881Z,21.22
2023-07-25T12:39:19.143Z,21.25
2023-07-25T12:41:47.571Z,21.05
2023-07-25T12:44:15.394Z,20.95
2023-07-25T12:46:43.305Z,21.08
2023-07-25T12:49:11.191Z,21.18
2023-07-25T12:51:38.958Z,21.25
2023-07-25T12:54:06.777Z,21.26
2023-07-25T12:56:34.827Z,21.02
2023-07-25T12:59:02.852Z,20.83
2023-07-25T13:01:30.930Z,20.82
2023-07-25T13:03:59.182Z,21.02
2023-07-25T13:06:26.966Z,21.26
2023-07-25T13:08:54.822Z,21.50
2023-07-25T13:11:22.553Z,21.75
2023-07-25T13:13:50.417Z,21.99
2023-07-25T13:16:18.301Z,21.90
2023-07-25T13:18:46.153Z,21.65
2023-07-25T13:21:13.871Z,21.51
2023-07-25T13:23:41.909Z,21.65
2023-07-25T13:26:09.922Z,21.76
2023-07-25T13:28:37.951Z,21.64
2023-07-25T13:31:05.807Z,21.21
2023-07-25T13:33:33.717Z,20.84
2023-07-25T13:36:01.603Z,20.48
2023-07-25T13:38:29.331Z,20.26
2023-07-25T13:40:57.157Z,20.21
2023-07-25T13:43:24.992Z,20.11
2023-07-25T13:45:53.541Z,19.98
2023-07-25T13:48:24.368Z,19.92
2023-07-25T13:50:54.919Z,19.88
2023-07-25T13:53:23.316Z,19.99
2023-07-25T13:55:52.568Z,20.11
2023-07-25T13:58:23.990Z,20.26
2023-07-25T14:00:52.611Z,20.48
2023-07-25T14:03:20.471Z,20.65
2023-07-25T14:05:48.330Z,21.01
2023-07-25T14:08:16.020Z,21.37
2023-07-25T14:10:43.855Z,21.48
2023-07-25T14:13:11.768Z,21.39
2023-07-25T14:15:39.662Z,21.43
2023-07-25T14:18:07.629Z,21.67
2023-07-25T14:20:36.285Z,21.71
2023-07-25T14:23:04.013Z,21.46
2023-07-25T14:25:32.054Z,21.27
2023-07-25T14:27:59.811Z,21.24
2023-07-25T14:30:27.943Z,21.31
2023-07-25T14:32:55.749Z,21.24
2023-07-25T14:35:23.595Z,21.00
2023-07-25T14:37:56.824Z,20.87
2023-07-25T14:40:26.391Z,20.83
2023-07-25T14:42:54.232Z,20.74
2023-07-25T14:45:22.160Z,20.56
2023-07-25T14:47:50.202Z,20.45
2023-07-25T14:50:18.200Z,20.32
2023-07-25T14:52:45.916Z,20.25
2023-07-25T14:55:14.078Z,20.25
2023-07-25T14:57:42.015Z,20.30
2023-07-25T15:00:11.033Z,20.40
2023-07-25T15:02:38.931Z,20.58
2023-07-25T15:05:07.858Z,20.82
2023-07-25T15:07:36.231Z,21.07
2023-07-25T15:10:04.981Z,21.44
2023-07-25T15:12:33.202Z,21.72
2023-07-25T15:15:01.341Z,21.80
2023-07-25T15:17:29.460Z,21.51
2023-07-25T15:20:01.959Z,21.23
2023-07-25T15:22:30.734Z,20.88
2023-07-25T15:24:58.834Z,20.60
2023-07-25T15:27:28.862Z,20.47
2023-07-25T15:29:57.145Z,20.41
2023-07-25T15:32:25.083Z,20.34
2023-07-25T15:34:52.974Z,20.29
2023-07-25T15:37:20.883Z,20.25
2023-07-25T15:39:48.685Z,20.31
2023-07-25T15:42:16.402Z,20.39
2023-07-25T15:44:44.169Z,20.50
2023-07-25T15:47:11.971Z,20.63
2023-07-25T15:49:39.774Z,20.71
2023-07-25T15:52:08.267Z,20.74
2023-07-25T15:54:36.150Z,20.79
2023-07-25T15:57:04.359Z,20.74
2023-07-25T15:59:32.107Z,20.63
2023-07-25T16:02:00.053Z,20.64
2023-07-25T16:04:27.854Z,20.74
2023-07-25T16:06:55.641Z,20.75
2023-07-25T16:09:23.385Z,20.88
2023-07-25T16:11:51.135Z,21.08
2023-07-25T16:14:18.998Z,21.14
2023-07-25T16:16:46.995Z,21.08
2023-07-25T16:19:16.992Z,21.12
2023-07-25T16:21:44.819Z,21.19
2023-07-25T16:24:12.597Z,21.30
2023-07-25T16:26:40.457Z,21.25
2023-07-25T16:29:08.294Z,21.12
2023-07-25T16:31:36.202Z,20.85
2023-07-25T16:34:04.881Z,20.59
2023-07-25T16:36:32.709Z,20.40
2023-07-25T16:39:00.705Z,20.23
2023-07-25T16:41:28.572Z,20.17
2023-07-25T16:43:56.340Z,20.25
2023-07-25T16:46:24.172Z,20.34
2023-07-25T16:48:51.991Z,20.43
2023-07-25T16:51:19.748Z,20.46
2023-07-25T16:53:47.659Z,20.57
2023-07-25T16:56:15.454Z,20.67
2023-07-25T16:58:43.317Z,20.61
2023-07-25T17:01:11.111Z,20.57
2023-07-25T17:03:39.389Z,20.60
2023-07-25T17:06:07.453Z,20.51
2023-07-25T17:08:35.236Z,20.47
2023-07-25T17:11:05.876Z,20.33
2023-07-25T17:13:36.752Z,20.19
2023-07-25T17:16:07.261Z,20.07
2023-07-25T17:18:35.337Z,20.01
2023-07-25T17:21:03.211Z,20.09
2023-07-25T17:23:30.982Z,20.13
2023-07-25T17:25:58.818Z,19.89
2023-07-25T17:28:27.224Z,19.79
2023-07-25T17:30:55.041Z,19.78
2023-07-25T17:33:23.239Z,19.80
2023-07-25T17:35:51.407Z,19.86
2023-07-25T17:38:19.232Z,19.79
2023-07-25T17:40:48.596Z,19.73
2023-07-25T17:43:16.637Z,19.70
2023-07-25T17:45:44.713Z,19.62
2023-07-25T17:48:14.669Z,19.57
2023-07-25T17:50:42.609Z,19.48
2023-07-25T17:53:10.548Z,19.36
2023-07-25T17:55:40.734Z,19.17
2023-07-25T17:58:11.761Z,19.03
2023-07-25T18:00:40.601Z,18.93
2023-07-25T18:03:08.713Z,18.85
2023-07-25T18:05:37.080Z,18.84
2023-07-25T18:08:05.462Z,18.77
2023-07-25T18:10:33.354Z,18.69
2023-07-25T18:13:01.225Z,18.64
2023-07-25T18:15:30.624Z,18.59
2023-07-25T18:17:58.920Z,18.51
2023-07-25T18:20:26.904Z,18.40
2023-07-25T18:22:54.777Z,18.33
2023-07-25T18:25:22.985Z,18.32
2023-07-25T18:27:50.819Z,18.34
2023-07-25T18:30:18.539Z,18.40
2023-07-25T18:32:46.971Z,18.42
2023-07-25T18:35:15.554Z,18.38
2023-07-25T18:37:46.462Z,18.36
2023-07-25T18:40:14.265Z,18.38
2023-07-25T18:42:42.089Z,18.44
2023-07-25T18:45:10.653Z,18.47
2023-07-25T18:47:38.955Z,18.52
2023-07-25T18:50:07.787Z,18.57
2023-07-25T18:52:35.526Z,18.60
2023-07-25T18:55:03.614Z,18.65
2023-07-25T18:57:31.405Z,18.67
2023-07-25T18:59:59.432Z,18.63
2023-07-25T19:02:27.288Z,18.53
2023-07-25T19:04:55.074Z,18.49
2023-07-25T19:07:22.988Z,18.44
2023-07-25T19:09:50.678Z,18.37
2023-07-25T19:12:21.546Z,18.30
2023-07-25T19:14:49.290Z,18.24
2023-07-25T19:17:17.598Z,18.20
2023-07-25T19:19:45.413Z,18.16
2023-07-25T19:22:13.130Z,18.06
2023-07-25T19:24:40.884Z,17.94
2023-07-25T19:27:08.811Z,17.90
2023-07-25T19:29:36.525Z,17.89
2023-07-25T19:32:04.735Z,17.83
2023-07-25T19:34:36.326Z,17.73
2023-07-25T19:37:04.480Z,17.66
2023-07-25T19:39:34.217Z,17.61
2023-07-25T19:42:02.593Z,17.52
2023-07-25T19:44:30.343Z,17.41
2023-07-25T19:46:58.248Z,17.34
2023-07-25T19:49:25.966Z,17.26
2023-07-25T19:51:53.673Z,17.23
2023-07-25T19:54:21.707Z,17.18
2023-07-25T19:56:49.505Z,17.13
2023-07-25T19:59:17.357Z,17.08
2023-07-25T20:01:45.313Z,16.99
2023-07-25T20:04:13.068Z,16.89
2023-07-25T20:06:40.891Z,16.79
2023-07-25T20:09:08.625Z,16.71
2023-07-25T20:11:36.373Z,16.63
2023-07-25T20:14:04.411Z,16.55
2023-07-25T20:16:32.530Z,16.47
2023-07-25T20:19:00.710Z,16.41
2023-07-25T20:21:28.578Z,16.31
2023-07-25T20:23:56.428Z,16.21
2023-07-25T20:26:24.272Z,16.12
2023-07-25T20:28:54.482Z,16.02
2023-07-25T20:31:22.216Z,15.96
2023-07-25T20:33:50.323Z,15.90
2023-07-25T20:36:18.139Z,15.85
2023-07-25T20:38:47.694Z,15.74
2023-07-25T20:41:15.831Z,15.65
2023-07-25T20:43:43.747Z,15.56
2023-07-25T20:46:11.714Z,15.49
2023-07-25T20:48:39.828Z,15.41
2023-07-25T20:51:07.626Z,15.31
2023-07-25T20:53:36.597Z,15.20
2023-07-25T20:56:07.673Z,15.09
2023-07-25T20:58:35.700Z,15.01
2023-07-25T21:01:03.767Z,14.92
2023-07-25T21:03:31.943Z,14.84
2023-07-25T21:06:04.262Z,14.79
2023-07-25T21:08:32.043Z,14.68
2023-07-25T21:11:00.287Z,14.56
2023-07-25T21:13:28.216Z,14.46
2023-07-25T21:15:56.144Z,14.40
2023-07-25T21:18:23.994Z,14.35
2023-07-25T21:20:51.974Z,14.31
2023-07-25T21:23:23.474Z,14.28
2023-07-25T21:25:52.295Z,14.25
2023-07-25T21:28:20.503Z,14.23
2023-07-25T21:30:48.627Z,14.15
2023-07-25T21:33:16.434Z,14.10
2023-07-25T21:35:44.233Z,14.05
2023-07-25T21:38:13.057Z,14.01
2023-07-25T21:40:40.871Z,14.03
2023-07-25T21:43:08.539Z,13.99
2023-07-25T21:45:36.411Z,13.90
2023-07-25T21:48:04.714Z,13.80
2023-07-25T21:50:32.513Z,13.74
2023-07-25T21:53:00.300Z,13.67
2023-07-25T21:55:28.071Z,13.63
2023-07-25T21:57:55.933Z,13.58
2023-07-25T22:00:23.696Z,13.58
2023-07-25T22:02:51.786Z,13.53
2023-07-25T22:05:19.801Z,13.48
2023-07-25T22:07:49.040Z,13.46
2023-07-25T22:10:16.913Z,13.42
2023-07-25T22:12:47.759Z,13.34
2023-07-25T22:15:15.828Z,13.28
2023-07-25T22:17:43.912Z,13.23
2023-07-25T22:20:12.280Z,13.20
2023-07-25T22:22:41.046Z,13.17
2023-07-25T22:25:09.250Z,13.16
2023-07-25T22:27:37.106Z,13.10
2023-07-25T22:30:06.311Z,13.05
2023-07-25T22:32:34.482Z,13.00
2023-07-25T22:35:02.480Z,12.95
2023-07-25T22:37:30.904Z,12.93
2023-07-25T22:39:58.604Z,12.91
2023-07-25T22:42:26.568Z,12.91
2023-07-25T22:44:54.408Z,12.93
2023-07-25T22:47:22.265Z,12.94
2023-07-25T22:49:53.526Z,12.98
2023-07-25T22:52:23.305Z,13.03
2023-07-25T22:54:51.407Z,13.06
2023-07-25T22:57:19.213Z,13.09
2023-07-25T22:59:46.968Z,13.09
2023-07-25T23:02:14.770Z,13.05
2023-07-25T23:04:42.524Z,12.99
2023-07-25T23:07:10.244Z,12.94
2023-07-25T23:09:38.125Z,12.89
2023-07-25T23:12:06.449Z,12.82
2023-07-25T23:14:35.136Z,12.81
2023-07-25T23:17:03.042Z,12.87
2023-07-25T23:19:31.126Z,12.81
2023-07-25T23:21:58.913Z,12.78
2023-07-25T23:24:26.714Z,12.78
2023-07-25T23:26:54.451Z,12.73
2023-07-25T23:29:22.187Z,12.66
2023-07-25T23:31:50.296Z,12.62
2023-07-25T23:34:18.443Z,12.49
2023-07-25T23:36:46.200Z,12.45
2023-07-25T23:39:13.958Z,12.41
2023-07-25T23:41:41.741Z,12.33
2023-07-25T23:44:10.842Z,12.30
2023-07-25T23:46:38.738Z,12.26
2023-07-25T23:49:06.514Z,12.18
2023-07-25T23:51:34.230Z,12.15
2023-07-25T23:54:02.145Z,12.18
2023-07-25T23:56:29.975Z,12.19
2023-07-25T23:58:57.824Z,12.18
